createdAt,value
2022-09-07T00:01:07.433Z,23.83
2022-09-07T00:03:35.350Z,24.45
2022-09-07T00:06:08.798Z,24.63
2022-09-07T00:08:36.252Z,25.08
2022-09-07T00:11:08.428Z,24.17
2022-09-07T00:13:40.033Z,25.67
2022-09-07T00:16:25.540Z,24.93
2022-09-07T00:18:59.444Z,24.80
2022-09-07T00:21:28.115Z,24.30
2022-09-07T00:23:56.587Z,25.33
2022-09-07T00:26:28.614Z,25.33
2022-09-07T00:29:02.065Z,24.35
2022-09-07T00:31:31.740Z,24.13
2022-09-07T00:34:01.302Z,24.00
2022-09-07T00:36:28.766Z,23.92
2022-09-07T00:39:02.549Z,23.67
2022-09-07T00:41:30.930Z,22.92
2022-09-07T00:44:38.528Z,23.20
2022-09-07T00:47:20.327Z,21.85
2022-09-07T00:49:52.899Z,21.80
2022-09-07T00:52:23.885Z,21.58
2022-09-07T00:55:01.879Z,21.00
2022-09-07T00:57:29.946Z,20.33
2022-09-07T00:59:58.942Z,20.83
2022-09-07T01:02:27.254Z,20.77
2022-09-07T01:05:10.731Z,19.67
2022-09-07T01:07:37.932Z,20.25
2022-09-07T01:10:07.707Z,19.90
2022-09-07T01:12:34.664Z,18.90
2022-09-07T01:15:02.071Z,19.08
2022-09-07T01:18:03.440Z,18.65
2022-09-07T01:21:01.390Z,19.55
2022-09-07T01:23:55.652Z,18.35
2022-09-07T01:27:00.415Z,18.55
2022-09-07T01:29:46.827Z,18.38
2022-09-07T01:32:35.670Z,18.70
2022-09-07T01:35:10.443Z,19.17
2022-09-07T01:37:57.274Z,18.65
2022-09-07T01:40:58.840Z,18.55
2022-09-07T01:44:00.564Z,18.45
2022-09-07T01:46:39.894Z,18.45
2022-09-07T01:49:20.838Z,18.10
2022-09-07T01:52:03.882Z,17.83
2022-09-07T01:54:40.577Z,17.55
2022-09-07T01:57:21.326Z,17.92
2022-09-07T02:00:08.459Z,17.10
2022-09-07T02:02:59.128Z,18.35
2022-09-07T02:05:34.647Z,17.30
2022-09-07T02:08:17.560Z,16.45
2022-09-07T02:11:08.647Z,17.42
2022-09-07T02:13:48.243Z,17.35
2022-09-07T02:16:32.192Z,17.20
2022-09-07T02:19:14.468Z,17.70
2022-09-07T02:21:48.621Z,17.13
2022-09-07T02:24:24.301Z,16.48
2022-09-07T02:26:54.462Z,15.85
2022-09-07T02:29:22.225Z,17.33
2022-09-07T02:31:50.969Z,17.25
2022-09-07T02:34:18.549Z,17.92
2022-09-07T02:36:50.961Z,17.08
2022-09-07T02:39:18.468Z,17.10
2022-09-07T02:41:46.557Z,16.05
2022-09-07T02:44:25.987Z,17.15
2022-09-07T02:47:38.474Z,16.73
2022-09-07T02:50:44.887Z,16.37
2022-09-07T02:54:08.591Z,15.32
2022-09-07T02:57:04.819Z,16.05
2022-09-07T03:00:20.795Z,16.65
2022-09-07T03:03:00.890Z,16.35
2022-09-07T03:06:00.148Z,15.55
2022-09-07T03:08:39.833Z,15.57
2022-09-07T03:11:08.509Z,15.88
2022-09-07T03:13:35.648Z,15.65
2022-09-07T03:16:06.132Z,15.32
2022-09-07T03:18:33.704Z,16.00
2022-09-07T03:21:00.953Z,15.75
2022-09-07T03:23:28.170Z,16.17
2022-09-07T03:25:55.137Z,16.38
2022-09-07T03:28:22.081Z,16.25
2022-09-07T03:30:49.080Z,16.90
2022-09-07T03:33:16.693Z,16.27
2022-09-07T03:36:00.246Z,16.77
2022-09-07T03:38:27.462Z,16.40
2022-09-07T03:41:02.384Z,16.55
2022-09-07T03:43:31.116Z,16.48
2022-09-07T03:46:05.192Z,16.58
2022-09-07T03:48:34.929Z,16.02
2022-09-07T03:51:08.884Z,16.58
2022-09-07T03:53:39.362Z,16.45
2022-09-07T03:56:11.208Z,16.58
2022-09-07T03:58:39.382Z,15.68
2022-09-07T04:01:14.283Z,16.15
2022-09-07T04:03:42.319Z,16.95
2022-09-07T04:06:09.919Z,15.23
2022-09-07T04:08:40.190Z,14.77
2022-09-07T04:11:10.727Z,15.27
2022-09-07T04:13:37.958Z,16.20
2022-09-07T04:16:17.986Z,16.60
2022-09-07T04:18:45.687Z,16.08
2022-09-07T04:21:17.804Z,16.00
2022-09-07T04:23:45.719Z,15.27
2022-09-07T04:26:20.034Z,15.48
2022-09-07T04:28:48.595Z,15.40
2022-09-07T04:31:19.040Z,16.98
2022-09-07T04:33:48.791Z,17.35
2022-09-07T04:36:18.879Z,17.27
2022-09-07T04:38:46.993Z,15.77
2022-09-07T04:41:17.761Z,15.93
2022-09-07T04:43:46.635Z,15.32
2022-09-07T04:46:24.306Z,16.50
2022-09-07T04:48:58.378Z,14.88
2022-09-07T04:51:29.320Z,14.70
2022-09-07T04:54:03.946Z,15.30
2022-09-07T04:56:32.353Z,15.20
2022-09-07T04:59:05.923Z,15.35
2022-09-07T05:01:34.204Z,15.68
2022-09-07T05:04:02.783Z,14.20
2022-09-07T05:06:30.343Z,14.50
2022-09-07T05:09:00.288Z,14.90
2022-09-07T05:11:29.373Z,14.68
2022-09-07T05:14:02.935Z,14.70
2022-09-07T05:16:34.950Z,16.48
2022-09-07T05:19:05.315Z,13.90
2022-09-07T05:21:34.594Z,14.93
2022-09-07T05:24:02.723Z,13.15
2022-09-07T05:26:36.462Z,14.07
2022-09-07T05:31:54.008Z,13.23
2022-09-07T05:36:56.156Z,14.25
2022-09-07T05:39:24.654Z,13.52
2022-09-07T05:41:51.621Z,12.73
2022-09-07T05:47:06.367Z,13.70
2022-09-07T05:49:34.282Z,13.75
2022-09-07T05:52:02.733Z,12.48
2022-09-07T05:54:29.864Z,14.00
2022-09-07T05:56:57.083Z,12.55
2022-09-07T05:59:27.091Z,13.25
2022-09-07T06:01:54.241Z,12.48
2022-09-07T06:04:21.623Z,11.98
2022-09-07T06:07:17.769Z,12.75
2022-09-07T06:12:25.200Z,11.73
2022-09-07T06:14:52.196Z,12.38
2022-09-07T06:17:19.706Z,11.73
2022-09-07T06:19:46.823Z,10.93
2022-09-07T06:22:13.936Z,11.68
2022-09-07T06:24:41.340Z,11.80
2022-09-07T06:27:11.430Z,10.70
2022-09-07T06:29:38.508Z,11.05
2022-09-07T06:34:53.985Z,11.02
2022-09-07T06:37:21.593Z,11.52
2022-09-07T06:39:49.540Z,11.65
2022-09-07T06:42:16.751Z,11.93
2022-09-07T06:44:44.637Z,11.38
2022-09-07T06:47:12.197Z,11.98
2022-09-07T06:49:39.182Z,11.55
2022-09-07T06:52:06.581Z,11.40
2022-09-07T06:57:20.804Z,11.65
2022-09-07T06:59:48.097Z,11.93
2022-09-07T07:02:15.480Z,10.65
2022-09-07T07:04:45.230Z,10.70
2022-09-07T07:07:13.971Z,10.93
2022-09-07T07:09:43.512Z,10.70
2022-09-07T07:12:11.397Z,10.98
2022-09-07T07:14:43.950Z,10.18
2022-09-07T07:17:11.930Z,10.25
2022-09-07T07:19:38.873Z,11.32
2022-09-07T07:22:18.615Z,10.60
2022-09-07T07:24:52.934Z,9.82
2022-09-07T07:27:24.640Z,11.35
2022-09-07T07:29:54.538Z,11.07
2022-09-07T07:32:21.927Z,10.27
2022-09-07T07:34:48.841Z,10.38
2022-09-07T07:37:17.105Z,10.40
2022-09-07T07:42:32.629Z,9.73
2022-09-07T07:47:53.625Z,11.18
2022-09-07T07:50:36.254Z,10.68
2022-09-07T07:55:52.361Z,10.02
2022-09-07T07:58:20.516Z,10.63
2022-09-07T08:00:54.874Z,10.20
2022-09-07T08:03:25.208Z,10.38
2022-09-07T08:05:52.924Z,10.20
2022-09-07T08:08:20.838Z,9.55
2022-09-07T08:10:48.085Z,11.23
2022-09-07T08:13:19.429Z,10.32
2022-09-07T08:15:46.821Z,9.90
2022-09-07T08:18:16.865Z,9.60
2022-09-07T08:20:44.686Z,9.93
2022-09-07T08:23:11.932Z,9.85
2022-09-07T08:25:39.159Z,9.77
2022-09-07T08:28:06.430Z,9.93
2022-09-07T08:30:33.483Z,9.80
2022-09-07T08:33:01.651Z,9.70
2022-09-07T08:35:28.658Z,9.15
2022-09-07T08:37:55.624Z,9.27
2022-09-07T08:40:22.851Z,8.52
2022-09-07T08:43:20.934Z,9.93
2022-09-07T08:45:54.249Z,9.43
2022-09-07T08:48:34.489Z,8.77
2022-09-07T08:51:27.539Z,9.15
2022-09-07T08:53:55.717Z,8.20
2022-09-07T08:56:33.768Z,8.68
2022-09-07T08:59:14.246Z,8.52
2022-09-07T09:02:26.278Z,9.25
2022-09-07T09:04:31.549Z,8.80
2022-09-07T09:07:20.742Z,9.70
2022-09-07T09:10:12.912Z,8.25
2022-09-07T09:13:19.417Z,8.88
2022-09-07T09:15:59.670Z,8.52
2022-09-07T09:18:51.585Z,8.38
2022-09-07T09:21:19.904Z,8.38
2022-09-07T09:23:52.633Z,8.07
2022-09-07T09:26:29.676Z,8.15
2022-09-07T09:28:57.579Z,7.78
2022-09-07T09:31:34.253Z,7.53
2022-09-07T09:34:10.061Z,7.18
2022-09-07T09:36:46.449Z,7.95
2022-09-07T09:39:37.026Z,7.72
2022-09-07T09:42:22.502Z,6.72
2022-09-07T09:44:51.010Z,7.50
2022-09-07T09:47:33.517Z,6.95
2022-09-07T09:53:55.840Z,6.90
2022-09-07T09:56:36.559Z,7.72
2022-09-07T10:05:37.413Z,6.80
2022-09-07T10:08:30.098Z,7.07
2022-09-07T10:13:55.725Z,7.10
2022-09-07T10:16:42.855Z,7.00
2022-09-07T10:19:38.689Z,7.25
2022-09-07T10:22:39.075Z,7.30
2022-09-07T10:25:40.975Z,7.45
2022-09-07T10:28:12.661Z,7.20
2022-09-07T10:31:18.199Z,7.40
2022-09-07T10:34:33.553Z,7.10
2022-09-07T10:37:11.549Z,6.82
2022-09-07T10:40:00.626Z,8.60
2022-09-07T10:43:20.558Z,7.50
2022-09-07T10:46:07.513Z,6.68
2022-09-07T10:49:02.142Z,7.05
2022-09-07T10:52:09.018Z,6.80
2022-09-07T10:54:47.607Z,6.35
2022-09-07T10:57:49.211Z,6.18
2022-09-07T11:00:22.695Z,6.85
2022-09-07T11:06:29.851Z,6.10
2022-09-07T11:09:27.691Z,6.53
2022-09-07T11:12:16.545Z,5.97
2022-09-07T11:15:06.867Z,6.18
2022-09-07T11:17:52.623Z,5.88
2022-09-07T11:20:45.345Z,6.03
2022-09-07T11:26:29.809Z,6.03
2022-09-07T11:29:35.641Z,6.10
2022-09-07T11:32:19.338Z,6.18
2022-09-07T11:34:58.655Z,5.82
2022-09-07T11:37:59.505Z,6.25
2022-09-07T11:41:15.059Z,5.90
2022-09-07T11:44:25.886Z,6.45
2022-09-07T11:47:02.200Z,5.90
2022-09-07T11:49:31.145Z,5.55
2022-09-07T11:52:18.848Z,5.82
2022-09-07T11:55:10.165Z,6.60
2022-09-07T11:58:07.749Z,6.50
2022-09-07T12:01:01.784Z,5.97
2022-09-07T12:04:15.453Z,6.20
2022-09-07T12:07:46.501Z,6.50
2022-09-07T12:10:18.880Z,5.72
2022-09-07T12:13:18.172Z,6.15
2022-09-07T12:16:25.487Z,6.13
2022-09-07T12:19:17.766Z,6.47
2022-09-07T12:21:59.331Z,6.35
2022-09-07T12:24:35.660Z,6.25
2022-09-07T12:27:20.758Z,6.20
2022-09-07T12:30:03.926Z,6.03
2022-09-07T12:32:55.259Z,6.53
2022-09-07T12:35:40.363Z,6.63
2022-09-07T12:38:36.494Z,6.82
2022-09-07T12:41:25.294Z,6.47
2022-09-07T12:44:07.042Z,6.90
2022-09-07T12:46:34.722Z,6.75
2022-09-07T12:49:29.543Z,7.15
2022-09-07T12:52:34.436Z,7.82
2022-09-07T12:59:22.611Z,7.57
2022-09-07T13:02:44.496Z,8.23
2022-09-07T13:05:44.912Z,8.32
2022-09-07T13:08:44.033Z,8.20
2022-09-07T13:11:20.328Z,9.65
2022-09-07T13:14:20.412Z,8.77
2022-09-07T13:19:46.289Z,8.75
2022-09-07T13:22:35.140Z,9.43
2022-09-07T13:25:27.751Z,9.90
2022-09-07T13:31:05.014Z,10.00
2022-09-07T13:33:35.056Z,10.32
2022-09-07T13:36:08.250Z,9.82
2022-09-07T13:38:40.141Z,7.50
2022-09-07T13:41:15.288Z,5.70
2022-09-07T13:43:49.423Z,6.35
2022-09-07T13:46:41.088Z,5.60
2022-09-07T13:50:01.110Z,5.40
2022-09-07T13:53:12.278Z,4.32
2022-09-07T13:56:02.301Z,4.95
2022-09-07T13:58:40.960Z,5.05
2022-09-07T14:01:29.391Z,4.80
2022-09-07T14:04:09.480Z,4.15
2022-09-07T14:06:39.407Z,5.13
2022-09-07T14:09:14.680Z,5.03
2022-09-07T14:11:46.862Z,6.13
2022-09-07T14:14:24.931Z,6.43
2022-09-07T14:17:04.547Z,6.40
2022-09-07T14:19:51.872Z,5.55
2022-09-07T14:22:24.740Z,6.38
2022-09-07T14:24:56.650Z,5.97
2022-09-07T14:30:33.200Z,7.32
2022-09-07T14:33:20.173Z,7.50
2022-09-07T14:35:49.465Z,7.30
2022-09-07T14:41:20.875Z,6.63
2022-09-07T14:43:57.448Z,6.88
2022-09-07T14:46:30.804Z,6.40
2022-09-07T14:49:07.956Z,6.30
2022-09-07T14:51:36.822Z,6.72
2022-09-07T14:54:07.518Z,6.28
2022-09-07T14:56:39.344Z,6.32
2022-09-07T14:59:38.191Z,5.88
2022-09-07T15:02:29.778Z,5.82
2022-09-07T15:05:28.627Z,5.22
2022-09-07T15:08:02.742Z,5.35
2022-09-07T15:10:41.352Z,4.28
2022-09-07T15:13:44.248Z,4.78
2022-09-07T15:16:25.120Z,4.50
2022-09-07T15:19:24.339Z,5.32
2022-09-07T15:21:51.546Z,4.90
2022-09-07T15:24:18.600Z,5.00
2022-09-07T15:27:05.228Z,4.45
2022-09-07T15:29:32.976Z,4.95
2022-09-07T15:32:04.309Z,3.92
2022-09-07T15:37:00.830Z,4.07
2022-09-07T15:39:34.408Z,4.10
2022-09-07T15:44:53.440Z,3.88
2022-09-07T15:50:11.331Z,4.50
2022-09-07T15:52:38.827Z,5.53
2022-09-07T15:55:08.956Z,5.03
2022-09-07T15:58:02.237Z,6.00
2022-09-07T16:00:26.192Z,6.35
2022-09-07T16:03:09.405Z,5.95
2022-09-07T16:05:43.964Z,5.57
2022-09-07T16:08:32.878Z,5.75
2022-09-07T16:11:17.901Z,5.68
2022-09-07T16:13:46.956Z,7.70
2022-09-07T16:16:15.683Z,8.45
2022-09-07T16:18:46.697Z,6.97
2022-09-07T16:21:16.238Z,6.25
2022-09-07T16:23:48.926Z,6.47
2022-09-07T16:26:19.459Z,7.78
2022-09-07T16:28:49.484Z,8.88
2022-09-07T16:31:23.562Z,10.57
2022-09-07T16:33:51.977Z,11.80
2022-09-07T16:36:20.270Z,10.18
2022-09-07T16:38:49.120Z,11.07
2022-09-07T16:41:20.576Z,10.23
2022-09-07T16:43:49.461Z,9.50
2022-09-07T16:46:21.103Z,8.27
2022-09-07T16:48:50.225Z,7.00
2022-09-07T16:51:21.506Z,6.93
2022-09-07T16:53:52.080Z,7.72
2022-09-07T16:56:25.069Z,8.32
2022-09-07T16:58:57.110Z,7.32
2022-09-07T17:01:29.023Z,7.47
2022-09-07T17:03:56.703Z,7.70
2022-09-07T17:06:26.986Z,7.60
2022-09-07T17:08:55.485Z,7.18
2022-09-07T17:11:26.618Z,7.35
2022-09-07T17:13:56.659Z,7.32
2022-09-07T17:16:28.357Z,7.10
2022-09-07T17:21:46.465Z,7.90
2022-09-07T17:24:13.934Z,7.53
2022-09-07T17:26:42.271Z,7.55
2022-09-07T17:29:12.812Z,8.20
2022-09-07T17:34:30.026Z,7.53
2022-09-07T17:36:57.646Z,8.27
2022-09-07T17:39:24.951Z,8.88
2022-09-07T17:41:52.767Z,7.95
2022-09-07T17:44:21.592Z,7.80
2022-09-07T17:46:48.744Z,8.15
2022-09-07T17:49:16.749Z,8.10
2022-09-07T17:51:44.728Z,8.50
2022-09-07T17:54:37.171Z,7.85
2022-09-07T17:57:05.263Z,8.73
2022-09-07T18:02:21.421Z,9.02
2022-09-07T18:04:49.449Z,8.88
2022-09-07T18:07:16.710Z,8.73
2022-09-07T18:09:43.888Z,9.82
2022-09-07T18:12:11.024Z,8.50
2022-09-07T18:14:38.244Z,9.70
2022-09-07T18:17:05.841Z,9.30
2022-09-07T18:19:32.984Z,9.00
2022-09-07T18:22:02.723Z,8.75
2022-09-07T18:24:30.425Z,9.93
2022-09-07T18:26:58.137Z,9.23
2022-09-07T18:29:29.866Z,8.75
2022-09-07T18:31:59.822Z,9.10
2022-09-07T18:34:31.963Z,9.77
2022-09-07T18:37:00.823Z,10.20
2022-09-07T18:39:28.685Z,10.50
2022-09-07T18:41:55.936Z,10.25
2022-09-07T18:47:27.596Z,10.23
2022-09-07T18:49:56.282Z,9.98
2022-09-07T18:55:11.658Z,11.77
2022-09-07T18:57:38.987Z,10.68
2022-09-07T19:00:12.576Z,12.15
2022-09-07T19:02:39.757Z,12.18
2022-09-07T19:07:54.723Z,10.98
2022-09-07T19:10:23.135Z,11.48
2022-09-07T19:12:50.192Z,12.40
2022-09-07T19:15:17.597Z,12.63
2022-09-07T19:17:44.709Z,11.38
2022-09-07T19:20:11.927Z,12.07
2022-09-07T19:22:39.335Z,12.50
2022-09-07T19:25:06.825Z,14.15
2022-09-07T19:27:36.773Z,13.27
2022-09-07T19:30:04.825Z,13.57
2022-09-07T19:32:32.102Z,13.18
2022-09-07T19:34:59.078Z,12.90
2022-09-07T19:37:31.913Z,13.32
2022-09-07T19:40:00.249Z,13.65
2022-09-07T19:42:29.829Z,12.93
2022-09-07T19:44:57.009Z,13.63
2022-09-07T19:47:24.365Z,13.90
2022-09-07T19:49:54.059Z,12.63
2022-09-07T19:52:22.522Z,14.27
2022-09-07T19:54:49.458Z,14.05
2022-09-07T19:57:16.445Z,14.10
2022-09-07T19:59:45.597Z,14.18
2022-09-07T20:02:13.636Z,15.23
2022-09-07T20:04:46.629Z,13.82
2022-09-07T20:07:13.625Z,14.38
2022-09-07T20:09:40.948Z,15.40
2022-09-07T20:12:08.515Z,15.63
2022-09-07T20:14:35.507Z,15.05
2022-09-07T20:17:07.630Z,15.52
2022-09-07T20:19:34.938Z,14.38
2022-09-07T20:22:01.982Z,14.80
2022-09-07T20:24:29.119Z,15.32
2022-09-07T20:27:02.733Z,14.88
2022-09-07T20:29:31.572Z,15.43
2022-09-07T20:32:02.869Z,16.35
2022-09-07T20:34:32.398Z,15.20
2022-09-07T20:36:59.649Z,16.75
2022-09-07T20:39:26.823Z,15.60
2022-09-07T20:41:54.070Z,16.02
2022-09-07T20:44:21.068Z,14.98
2022-09-07T20:46:51.844Z,16.52
2022-09-07T20:49:19.190Z,15.55
2022-09-07T20:51:46.502Z,15.27
2022-09-07T20:54:13.605Z,15.20
2022-09-07T20:56:45.893Z,14.32
2022-09-07T21:01:42.298Z,13.95
2022-09-07T21:04:09.383Z,15.57
2022-09-07T21:06:43.637Z,13.30
2022-09-07T21:09:11.343Z,13.25
2022-09-07T21:11:39.841Z,13.75
2022-09-07T21:14:11.926Z,12.20
2022-09-07T21:16:42.023Z,12.52
2022-09-07T21:19:11.039Z,12.80
2022-09-07T21:21:42.179Z,12.52
2022-09-07T21:24:35.709Z,11.90
2022-09-07T21:27:03.136Z,12.88
2022-09-07T21:29:33.860Z,13.15
2022-09-07T21:32:00.816Z,12.90
2022-09-07T21:34:28.092Z,13.00
2022-09-07T21:36:55.957Z,12.73
2022-09-07T21:39:25.603Z,13.80
2022-09-07T21:41:52.505Z,13.63
2022-09-07T21:44:20.481Z,12.70
2022-09-07T21:46:47.525Z,13.40
2022-09-07T21:49:14.930Z,13.57
2022-09-07T21:51:42.348Z,13.05
2022-09-07T21:54:09.560Z,13.00
2022-09-07T21:56:36.641Z,13.85
2022-09-07T21:59:04.598Z,13.52
2022-09-07T22:01:32.024Z,14.32
2022-09-07T22:04:07.022Z,14.60
2022-09-07T22:06:37.562Z,13.90
2022-09-07T22:09:08.109Z,12.30
2022-09-07T22:11:35.237Z,13.05
2022-09-07T22:14:04.790Z,12.38
2022-09-07T22:16:34.796Z,12.65
2022-09-07T22:19:02.041Z,13.70
2022-09-07T22:21:32.188Z,12.40
2022-09-07T22:26:40.141Z,12.00
2022-09-07T22:29:11.043Z,12.95
2022-09-07T22:31:40.099Z,14.15
2022-09-07T22:34:09.403Z,13.30
2022-09-07T22:36:44.546Z,13.73
2022-09-07T22:41:43.821Z,13.98
2022-09-07T22:44:15.084Z,13.27
2022-09-07T22:46:46.922Z,12.95
2022-09-07T22:49:16.204Z,14.15
2022-09-07T22:51:46.308Z,13.82
2022-09-07T22:54:16.182Z,13.65
2022-09-07T22:56:43.191Z,14.93
2022-09-07T22:59:12.929Z,14.35
2022-09-07T23:01:42.018Z,13.98
2022-09-07T23:04:11.052Z,14.45
2022-09-07T23:06:43.804Z,14.32
2022-09-07T23:11:42.278Z,12.98
2022-09-07T23:14:17.448Z,14.15
2022-09-07T23:16:45.290Z,14.30
2022-09-07T23:19:13.840Z,13.50
2022-09-07T23:21:44.630Z,13.60
2022-09-07T23:24:15.567Z,13.57
2022-09-07T23:26:43.504Z,13.32
2022-09-07T23:29:15.989Z,13.80
2022-09-07T23:31:44.947Z,13.00
2022-09-07T23:34:12.444Z,13.52
2022-09-07T23:36:39.481Z,12.35
2022-09-07T23:39:06.853Z,12.77
2022-09-07T23:41:33.797Z,13.85
2022-09-07T23:44:01.576Z,13.75
2022-09-07T23:46:28.658Z,13.80
2022-09-07T23:48:55.803Z,13.60
2022-09-07T23:51:24.502Z,13.88
2022-09-07T23:53:55.579Z,14.07
2022-09-07T23:56:24.620Z,13.73
2022-09-07T23:58:51.730Z,14.35
